Time;durP1;ratioP1;P1;durP2;ratioP2;P2;SDS_P1;SDS_P2;PMS_P1;PMS_P2;Temp;Humidity;BMP_temperature;BMP_pressure;BME280_temperature;BME280_humidity;BME280_pressure;Samples;Min_cycle;Max_cycle;Signal;HPM_P1;HPM_P2
2021/12/28 00:00:13;;;;;;;76.57;15.90;;;;;;;6.05;100.00;99435.19;5038054;28;20122;-46
2021/12/28 00:02:40;;;;;;;79.22;16.52;;;;;;;6.04;100.00;99431.72;5020581;28;20021;-50
2021/12/28 00:05:06;;;;;;;79.65;16.25;;;;;;;6.02;100.00;99425.75;5017828;28;20029;-45
2021/12/28 00:07:32;;;;;;;77.15;15.10;;;;;;;6.00;100.00;99433.03;5016926;28;20045;-49
2021/12/28 00:09:58;;;;;;;91.03;15.88;;;;;;;6.00;100.00;99432.22;5017740;28;20032;-50
2021/12/28 00:12:23;;;;;;;75.65;16.60;;;;;;;5.94;100.00;99431.00;5017491;28;20031;-49
2021/12/28 00:15:02;;;;;;;88.63;16.38;;;;;;;5.93;100.00;99429.38;5016989;28;20021;-47
2021/12/28 00:20:12;;;;;;;91.45;16.50;;;;;;;5.92;100.00;99425.06;5017902;28;20048;-46
2021/12/28 00:22:37;;;;;;;78.30;16.10;;;;;;;5.85;100.00;99424.06;5016424;28;20018;-51
2021/12/28 00:25:04;;;;;;;69.97;15.60;;;;;;;5.85;100.00;99424.88;5035933;28;20131;-46
2021/12/28 00:27:29;;;;;;;70.07;15.02;;;;;;;5.83;100.00;99426.88;5036138;28;20366;-47
2021/12/28 00:29:55;;;;;;;76.97;16.40;;;;;;;5.79;100.00;99415.78;5030628;28;20028;-47
2021/12/28 00:32:21;;;;;;;109.10;15.68;;;;;;;5.74;100.00;99419.94;5035562;28;20543;-48
2021/12/28 00:34:46;;;;;;;90.13;15.98;;;;;;;5.79;100.00;99415.78;5034339;28;20136;-46
2021/12/28 00:37:11;;;;;;;80.53;14.77;;;;;;;5.79;100.00;99415.78;5035775;28;20040;-50
2021/12/28 00:39:37;;;;;;;79.65;14.40;;;;;;;5.78;100.00;99415.97;5036346;28;20036;-45
2021/12/28 00:42:02;;;;;;;94.32;14.75;;;;;;;5.73;100.00;99405.84;5037420;28;20029;-44
2021/12/28 00:44:27;;;;;;;80.65;14.10;;;;;;;5.73;100.00;99411.16;5036263;28;20564;-48
2021/12/28 00:46:53;;;;;;;89.55;14.50;;;;;;;5.70;100.00;99400.91;5036099;28;20028;-47
2021/12/28 00:49:18;;;;;;;94.03;14.85;;;;;;;5.72;100.00;99400.72;5036096;28;20080;-47
2021/12/28 00:51:43;;;;;;;87.07;13.63;;;;;;;5.75;100.00;99403.03;5036097;28;20064;-45
2021/12/28 00:54:09;;;;;;;86.45;14.07;;;;;;;5.71;100.00;99396.44;5037130;28;20103;-46
2021/12/28 00:56:35;;;;;;;110.45;14.77;;;;;;;5.73;100.00;99395.25;5035361;28;20020;-46
2021/12/28 00:59:00;;;;;;;104.10;15.18;;;;;;;5.74;100.00;99390.81;5036516;28;20043;-46
2021/12/28 01:01:26;;;;;;;73.50;13.02;;;;;;;5.77;100.00;99399.25;5036200;28;20033;-48
2021/12/28 01:03:51;;;;;;;75.95;12.60;;;;;;;5.79;100.00;99394.59;5036153;28;20553;-49
2021/12/28 01:06:16;;;;;;;77.70;12.18;;;;;;;5.83;100.00;99389.78;5036400;28;20088;-47
2021/12/28 01:08:41;;;;;;;87.07;14.82;;;;;;;5.90;100.00;99387.31;5036498;28;20116;-47
2021/12/28 01:11:07;;;;;;;92.65;13.40;;;;;;;5.95;100.00;99385.81;5037128;28;20021;-49
2021/12/28 01:13:33;;;;;;;113.13;13.90;;;;;;;5.95;100.00;99380.50;5035958;28;20426;-47
2021/12/28 01:15:58;;;;;;;82.75;13.35;;;;;;;6.00;100.00;99374.75;5034239;28;20028;-47
2021/12/28 01:18:26;;;;;;;80.65;14.00;;;;;;;5.96;100.00;99382.19;5036666;28;20523;-46
2021/12/28 01:20:52;;;;;;;90.05;13.95;;;;;;;5.92;100.00;99377.34;5035905;28;20470;-47
2021/12/28 01:23:18;;;;;;;91.28;12.77;;;;;;;5.87;100.00;99374.38;5035996;28;20029;-46
2021/12/28 01:25:44;;;;;;;92.40;13.15;;;;;;;5.75;100.00;99374.75;5036307;28;20457;-48
2021/12/28 01:28:11;;;;;;;78.43;12.07;;;;;;;5.65;100.00;99374.09;5036242;28;20029;-47
2021/12/28 01:30:39;;;;;;;78.40;12.77;;;;;;;5.60;100.00;99377.22;5035476;28;20088;-46
2021/12/28 01:33:04;;;;;;;97.07;12.50;;;;;;;5.55;100.00;99370.75;5035744;28;20080;-48
2021/12/28 01:35:31;;;;;;;78.45;13.02;;;;;;;5.49;100.00;99374.06;5017556;28;20165;-47
2021/12/28 01:37:57;;;;;;;68.20;11.82;;;;;;;5.42;100.00;99379.19;5016226;28;21098;-47
2021/12/28 01:40:29;;;;;;;80.18;12.35;;;;;;;5.38;100.00;99376.06;5017244;28;20446;-47
2021/12/28 01:43:07;;;;;;;80.70;12.57;;;;;;;5.33;100.00;99370.41;5016235;28;20428;-48
2021/12/28 01:45:52;;;;;;;88.47;12.20;;;;;;;5.35;100.00;99371.06;5015256;28;20124;-46
2021/12/28 01:48:24;;;;;;;89.25;12.32;;;;;;;5.31;100.00;99369.75;5017471;28;20112;-47
2021/12/28 01:50:53;;;;;;;64.97;11.85;;;;;;;5.26;100.00;99364.13;5019927;28;20103;-48
2021/12/28 01:53:19;;;;;;;70.88;11.80;;;;;;;5.23;100.00;99373.22;5018656;28;20029;-47
2021/12/28 01:55:47;;;;;;;90.00;12.35;;;;;;;5.27;100.00;99375.53;5019761;28;20501;-45
2021/12/28 01:58:13;;;;;;;101.15;12.30;;;;;;;5.25;100.00;99365.09;5019434;28;20482;-47
2021/12/28 02:00:39;;;;;;;88.07;12.32;;;;;;;5.26;100.00;99371.22;5017805;28;20036;-47
2021/12/28 02:03:07;;;;;;;70.38;12.20;;;;;;;5.23;100.00;99369.75;5019717;28;20065;-50
2021/12/28 02:05:33;;;;;;;73.43;11.85;;;;;;;5.21;100.00;99361.13;5020100;28;20022;-47
2021/12/28 02:07:58;;;;;;;93.30;12.10;;;;;;;5.18;100.00;99370.22;5036856;28;20051;-49
2021/12/28 02:10:24;;;;;;;76.03;11.32;;;;;;;5.22;100.00;99370.72;5040454;28;20032;-47
2021/12/28 02:12:49;;;;;;;78.55;11.63;;;;;;;5.21;100.00;99371.69;5038508;28;20521;-45
2021/12/28 02:15:15;;;;;;;108.80;11.82;;;;;;;5.21;100.00;99361.97;5036434;28;20028;-46
2021/12/28 02:17:41;;;;;;;76.63;11.63;;;;;;;5.22;100.00;99357.50;5037869;28;20498;-46
2021/12/28 02:20:11;;;;;;;94.45;11.55;;;;;;;5.22;100.00;99354.84;5040032;28;20036;-45
2021/12/28 02:22:37;;;;;;;84.55;11.32;;;;;;;5.25;100.00;99364.28;5038838;28;20017;-45
2021/12/28 02:25:03;;;;;;;99.07;11.60;;;;;;;5.31;100.00;99360.97;5040577;28;20151;-45
2021/12/28 02:27:29;;;;;;;99.25;12.88;;;;;;;5.34;100.00;99361.47;5039751;28;20033;-45
2021/12/28 02:29:54;;;;;;;91.43;11.55;;;;;;;5.38;100.00;99357.50;5040312;28;20028;-48
2021/12/28 02:32:23;;;;;;;108.50;12.73;;;;;;;5.45;100.00;99367.44;5038894;28;20048;-44
2021/12/28 02:34:49;;;;;;;104.53;12.55;;;;;;;5.48;100.00;99360.00;5025827;28;20041;-48
2021/12/28 02:37:14;;;;;;;107.47;12.02;;;;;;;5.48;100.00;99354.72;5019535;28;20133;-50
2021/12/28 02:39:39;;;;;;;103.70;12.00;;;;;;;5.48;100.00;99348.56;5019052;28;20022;-44
2021/12/28 02:42:05;;;;;;;85.53;11.73;;;;;;;5.50;100.00;99341.28;5020467;28;20067;-44
2021/12/28 02:44:30;;;;;;;90.30;11.70;;;;;;;5.48;100.00;99336.19;5019038;28;20029;-45
2021/12/28 02:46:55;;;;;;;104.28;11.02;;;;;;;5.54;100.00;99343.44;5018932;28;20056;-46
2021/12/28 02:49:21;;;;;;;98.13;11.82;;;;;;;5.57;100.00;99340.47;5018852;28;20033;-49
2021/12/28 02:51:46;;;;;;;77.63;11.27;;;;;;;5.59;100.00;99327.88;5018875;28;20819;-46
2021/12/28 02:54:11;;;;;;;99.22;11.75;;;;;;;5.63;100.00;99327.56;5019555;28;20033;-47
2021/12/28 02:56:36;;;;;;;108.80;12.40;;;;;;;5.62;100.00;99318.78;5018411;28;20029;-47
2021/12/28 02:59:02;;;;;;;102.13;11.93;;;;;;;5.65;100.00;99312.31;5018580;28;20363;-49
2021/12/28 03:01:29;;;;;;;111.97;11.80;;;;;;;5.64;100.00;99310.69;5017902;28;20125;-47
2021/12/28 03:03:58;;;;;;;87.93;10.98;;;;;;;5.66;100.00;99319.28;5019020;28;20422;-44
2021/12/28 03:06:24;;;;;;;104.82;11.73;;;;;;;5.68;100.00;99314.63;5023973;28;20479;-47
2021/12/28 03:08:53;;;;;;;88.35;11.38;;;;;;;5.72;100.00;99322.09;5038266;28;20035;-49
2021/12/28 03:11:19;;;;;;;85.72;11.82;;;;;;;5.74;100.00;99321.94;5037108;28;20052;-49
2021/12/28 03:13:49;;;;;;;92.32;11.60;;;;;;;5.74;100.00;99311.34;5038077;28;20083;-46
2021/12/28 03:16:15;;;;;;;104.30;11.93;;;;;;;5.73;100.00;99315.78;5037785;28;20072;-49
2021/12/28 03:18:41;;;;;;;94.15;11.30;;;;;;;5.72;100.00;99308.84;5037814;28;20066;-46
2021/12/28 03:21:08;;;;;;;102.43;12.27;;;;;;;5.72;100.00;99300.06;5038968;28;20021;-46
2021/12/28 03:23:33;;;;;;;96.07;10.80;;;;;;;5.67;100.00;99299.72;5037749;28;20361;-46
2021/12/28 03:25:58;;;;;;;102.65;11.48;;;;;;;5.68;100.00;99304.88;5039077;28;20036;-47
2021/12/28 03:28:29;;;;;;;107.55;12.15;;;;;;;5.67;100.00;99299.72;5038497;28;20095;-49
2021/12/28 03:30:57;;;;;;;110.80;11.00;;;;;;;5.65;100.00;99293.78;5036174;28;20025;-46
2021/12/28 03:33:25;;;;;;;114.20;11.00;;;;;;;5.69;100.00;99300.41;5037635;28;20108;-50
2021/12/28 03:35:51;;;;;;;88.22;10.52;;;;;;;5.71;100.00;99296.59;5017664;28;20021;-46
2021/12/28 03:38:18;;;;;;;97.97;11.15;;;;;;;5.75;100.00;99289.13;5016934;28;20470;-48
2021/12/28 03:40:44;;;;;;;97.28;11.13;;;;;;;5.71;100.00;99286.00;5017882;28;20432;-47
2021/12/28 03:43:10;;;;;;;120.78;11.65;;;;;;;5.79;100.00;99282.53;5016805;28;20049;-46
2021/12/28 03:45:35;;;;;;;117.63;11.65;;;;;;;5.84;100.00;99282.84;5017055;28;20047;-46
2021/12/28 03:48:01;;;;;;;95.60;11.10;;;;;;;5.91;100.00;99273.22;5017838;28;20063;-45
2021/12/28 03:50:26;;;;;;;96.55;10.57;;;;;;;5.93;100.00;99273.03;5018592;28;20029;-49
2021/12/28 03:52:55;;;;;;;98.88;10.70;;;;;;;6.01;100.00;99269.56;5017048;28;21476;-46
2021/12/28 03:55:23;;;;;;;100.13;10.85;;;;;;;6.06;100.00;99272.53;5018049;28;20504;-48
2021/12/28 03:57:49;;;;;;;93.43;10.77;;;;;;;6.07;100.00;99268.88;5017503;28;20034;-48
2021/12/28 04:00:17;;;;;;;106.57;12.00;;;;;;;6.12;100.00;99262.06;5016387;28;20447;-47
2021/12/28 04:02:43;;;;;;;114.72;10.82;;;;;;;6.14;100.00;99273.34;5015597;28;20159;-49
2021/12/28 04:05:09;;;;;;;89.20;10.02;;;;;;;6.19;100.00;99267.50;5018192;28;20079;-45
2021/12/28 04:07:34;;;;;;;106.40;10.27;;;;;;;6.23;100.00;99271.47;5016504;28;20356;-46
2021/12/28 04:10:03;;;;;;;114.10;11.20;;;;;;;6.24;100.00;99274.94;5018085;28;20022;-47
2021/12/28 04:12:30;;;;;;;106.45;10.80;;;;;;;6.26;100.00;99267.66;5017079;28;20037;-47
2021/12/28 04:14:56;;;;;;;99.43;10.90;;;;;;;6.26;100.00;99262.34;5016435;28;20102;-44
2021/12/28 04:17:22;;;;;;;101.22;10.05;;;;;;;6.26;100.00;99271.16;5017509;28;20037;-47
2021/12/28 04:19:47;;;;;;;92.78;9.52;;;;;;;6.30;100.00;99267.13;5017073;28;20391;-47
2021/12/28 04:22:13;;;;;;;98.05;9.57;;;;;;;6.32;100.00;99262.47;5016735;28;20013;-45
2021/12/28 04:24:39;;;;;;;100.47;9.32;;;;;;;6.31;100.00;99263.50;5017106;28;20081;-45
2021/12/28 04:27:04;;;;;;;94.57;9.77;;;;;;;6.34;100.00;99263.13;5017739;28;20033;-46
2021/12/28 04:29:29;;;;;;;94.53;8.95;;;;;;;6.35;100.00;99263.97;5016761;28;20029;-48
2021/12/28 04:31:55;;;;;;;101.40;9.43;;;;;;;6.34;100.00;99263.13;5017004;28;20100;-48
2021/12/28 04:34:20;;;;;;;114.05;8.88;;;;;;;6.38;100.00;99265.44;5025761;28;20028;-47
2021/12/28 04:36:47;;;;;;;102.25;10.18;;;;;;;6.41;100.00;99268.56;5036439;28;20094;-46
2021/12/28 04:39:13;;;;;;;100.97;9.55;;;;;;;6.43;100.00;99265.75;5036693;28;20025;-47
2021/12/28 04:41:38;;;;;;;104.93;9.98;;;;;;;6.43;100.00;99263.94;5037190;28;20399;-46
2021/12/28 04:44:06;;;;;;;87.72;8.82;;;;;;;6.43;100.00;99260.44;5036634;28;20271;-49
2021/12/28 04:46:31;;;;;;;72.45;7.70;;;;;;;6.46;100.00;99278.66;5035765;28;20348;-50
2021/12/28 04:48:58;;;;;;;99.38;9.40;;;;;;;6.50;100.00;99266.69;5034662;28;20060;-49
2021/12/28 04:51:23;;;;;;;92.32;7.85;;;;;;;6.51;100.00;99271.84;5037094;28;20028;-49
2021/12/28 04:53:50;;;;;;;67.07;8.20;;;;;;;6.50;100.00;99267.56;5036686;28;20032;-48
2021/12/28 04:56:15;;;;;;;85.47;8.45;;;;;;;6.53;100.00;99263.72;5036986;28;20031;-48
2021/12/28 04:58:41;;;;;;;93.10;7.80;;;;;;;6.52;100.00;99267.38;5036052;28;20030;-46
2021/12/28 05:01:07;;;;;;;79.68;7.50;;;;;;;6.52;100.00;99268.19;5036604;28;20099;-45
2021/12/28 05:03:32;;;;;;;77.65;8.00;;;;;;;6.48;100.00;99252.78;5035854;28;20444;-45
2021/12/28 05:05:57;;;;;;;88.13;9.00;;;;;;;6.56;100.00;99258.06;5036557;28;20029;-47
2021/12/28 05:08:23;;;;;;;94.90;9.80;;;;;;;6.61;100.00;99255.72;5037082;28;20025;-47
2021/12/28 05:10:50;;;;;;;67.07;7.68;;;;;;;6.61;100.00;99258.38;5035235;28;20021;-46
2021/12/28 05:13:15;;;;;;;72.63;7.45;;;;;;;6.62;100.00;99254.72;5035306;28;20033;-45
2021/12/28 05:15:44;;;;;;;81.00;7.57;;;;;;;6.60;100.00;99246.13;5035726;28;20328;-47
2021/12/28 05:18:11;;;;;;;83.43;7.25;;;;;;;6.65;100.00;99251.72;5036059;28;20428;-46
2021/12/28 05:20:37;;;;;;;72.00;7.43;;;;;;;6.69;100.00;99253.00;5035968;28;20029;-47
2021/12/28 05:23:03;;;;;;;73.03;7.55;;;;;;;6.72;100.00;99243.88;5037197;28;20017;-47
2021/12/28 05:25:28;;;;;;;57.40;6.63;;;;;;;6.71;100.00;99245.69;5040445;28;20035;-44
2021/12/28 05:27:54;;;;;;;62.85;6.85;;;;;;;6.73;100.00;99238.38;5040515;28;20124;-46
2021/12/28 05:30:19;;;;;;;76.40;6.90;;;;;;;6.77;100.00;99233.56;5039549;28;20033;-47
2021/12/28 05:32:45;;;;;;;67.13;6.68;;;;;;;6.77;100.00;99230.06;5039717;28;20055;-45
2021/12/28 05:35:10;;;;;;;64.70;6.82;;;;;;;6.82;100.00;99233.03;5025195;28;20514;-46
2021/12/28 05:37:36;;;;;;;75.05;7.55;;;;;;;6.84;100.00;99236.31;5019590;28;20049;-46
2021/12/28 05:40:03;;;;;;;57.97;6.63;;;;;;;6.83;100.00;99230.19;5018385;28;20056;-44
2021/12/28 05:42:28;;;;;;;53.58;5.75;;;;;;;6.80;100.00;99227.06;5020058;28;20190;-48
2021/12/28 05:44:53;;;;;;;58.63;6.47;;;;;;;6.84;100.00;99220.41;5019345;28;20064;-49
2021/12/28 05:47:19;;;;;;;77.80;6.63;;;;;;;6.87;100.00;99212.09;5020416;28;20311;-47
2021/12/28 05:49:45;;;;;;;50.08;5.45;;;;;;;6.83;100.00;99216.94;5019683;28;20087;-48
2021/12/28 05:52:11;;;;;;;60.85;6.47;;;;;;;6.91;100.00;99222.19;5020396;28;20034;-48
2021/12/28 05:54:36;;;;;;;58.67;6.35;;;;;;;6.93;100.00;99219.34;5020086;28;20031;-47
2021/12/28 05:57:02;;;;;;;66.38;6.32;;;;;;;6.92;100.00;99204.41;5020514;28;20025;-44
2021/12/28 05:59:27;;;;;;;64.00;7.03;;;;;;;6.89;100.00;99200.31;5019794;28;20065;-44
2021/12/28 06:01:52;;;;;;;64.85;6.68;;;;;;;6.95;100.00;99205.91;5019749;28;20029;-47
2021/12/28 06:04:18;;;;;;;51.60;6.03;;;;;;;6.99;100.00;99201.88;5019546;28;20124;-47
2021/12/28 06:06:43;;;;;;;57.88;6.22;;;;;;;6.98;100.00;99202.91;5018691;28;20030;-47
2021/12/28 06:09:08;;;;;;;52.28;6.18;;;;;;;7.02;100.00;99207.66;5019783;28;20022;-47
2021/12/28 06:11:34;;;;;;;72.43;7.10;;;;;;;7.06;100.00;99206.31;5019412;28;20402;-44
2021/12/28 06:13:59;;;;;;;60.97;6.60;;;;;;;7.07;100.00;99207.13;5019938;28;20211;-48
2021/12/28 06:16:24;;;;;;;61.88;7.03;;;;;;;7.12;100.00;99210.06;5019486;28;20041;-46
2021/12/28 06:18:50;;;;;;;57.63;5.45;;;;;;;7.12;100.00;99199.47;5019118;28;20030;-47
2021/12/28 06:21:16;;;;;;;57.00;6.05;;;;;;;7.13;100.00;99200.28;5019584;28;20108;-48
2021/12/28 06:23:41;;;;;;;54.08;6.00;;;;;;;7.11;100.00;99195.13;5019571;28;20233;-45
2021/12/28 06:26:07;;;;;;;55.83;5.32;;;;;;;7.12;100.00;99195.97;5020303;28;20045;-45
2021/12/28 06:28:32;;;;;;;59.35;5.55;;;;;;;7.12;100.00;99194.16;5018820;28;20021;-46
2021/12/28 06:30:58;;;;;;;47.42;4.88;;;;;;;7.16;100.00;99190.16;5019176;28;20021;-47
2021/12/28 06:33:24;;;;;;;57.42;5.30;;;;;;;7.20;100.00;99187.94;5019600;28;20040;-45
2021/12/28 06:35:49;;;;;;;42.70;4.70;;;;;;;7.22;100.00;99185.94;5038930;28;20102;-49
2021/12/28 06:38:16;;;;;;;50.05;5.22;;;;;;;7.19;100.00;99176.47;5038452;28;20052;-48
2021/12/28 06:40:41;;;;;;;39.65;4.70;;;;;;;7.18;100.00;99180.16;5039367;28;20091;-48
2021/12/28 06:43:08;;;;;;;36.28;4.20;;;;;;;7.13;100.00;99169.25;5038844;28;20023;-44
2021/12/28 06:45:33;;;;;;;35.92;4.55;;;;;;;7.09;100.00;99163.50;5037642;28;20025;-48
2021/12/28 06:47:59;;;;;;;34.72;3.42;;;;;;;7.14;100.00;99173.53;5039019;28;20406;-49
2021/12/28 06:50:24;;;;;;;35.70;4.38;;;;;;;7.13;100.00;99166.59;5039139;28;20416;-48
2021/12/28 06:52:49;;;;;;;28.95;4.55;;;;;;;7.13;100.00;99171.91;5036615;28;20339;-48
2021/12/28 06:55:15;;;;;;;36.20;5.03;;;;;;;7.17;100.00;99178.50;5039226;28;20029;-50
2021/12/28 06:57:40;;;;;;;45.38;4.80;;;;;;;7.19;100.00;99173.84;5038527;28;20024;-47
2021/12/28 07:00:10;;;;;;;37.67;4.35;;;;;;;7.19;100.00;99173.00;5036947;28;20025;-49
2021/12/28 07:02:36;;;;;;;37.92;5.15;;;;;;;7.20;100.00;99175.50;5038205;28;20021;-46
2021/12/28 07:05:03;;;;;;;41.00;5.10;;;;;;;7.21;100.00;99173.66;5039171;28;20416;-45
2021/12/28 07:07:28;;;;;;;40.50;4.95;;;;;;;7.22;100.00;99175.31;5036384;28;20060;-48
2021/12/28 07:09:53;;;;;;;31.98;4.55;;;;;;;7.22;100.00;99160.19;5039206;28;20106;-46
2021/12/28 07:12:19;;;;;;;34.30;4.47;;;;;;;7.25;100.00;99162.50;5038702;28;20017;-46
2021/12/28 07:14:44;;;;;;;36.38;4.75;;;;;;;7.25;100.00;99157.19;5037261;28;20119;-43
2021/12/28 07:17:09;;;;;;;57.95;5.05;;;;;;;7.30;100.00;99161.97;5038942;28;20032;-47
2021/12/28 07:19:34;;;;;;;36.78;5.07;;;;;;;7.34;100.00;99162.41;5037539;28;20082;-47
2021/12/28 07:22:00;;;;;;;29.40;4.07;;;;;;;7.35;100.00;99162.25;5038376;28;20237;-47
2021/12/28 07:24:26;;;;;;;30.70;4.10;;;;;;;7.39;100.00;99160.84;5036545;28;20020;-45
2021/12/28 07:26:52;;;;;;;37.22;4.18;;;;;;;7.41;100.00;99166.81;5037916;28;20025;-43
2021/12/28 07:29:17;;;;;;;21.92;3.50;;;;;;;7.38;100.00;99161.88;5038148;28;20327;-46
2021/12/28 07:31:43;;;;;;;36.53;4.22;;;;;;;7.44;100.00;99171.75;5037092;28;20484;-47
2021/12/28 07:34:08;;;;;;;24.88;4.22;;;;;;;7.45;100.00;99169.91;5035743;28;20280;-44
2021/12/28 07:36:33;;;;;;;23.92;4.43;;;;;;;7.47;100.00;99170.59;5036645;28;20045;-49
2021/12/28 07:39:00;;;;;;;30.15;4.80;;;;;;;7.50;100.00;99162.22;5038098;28;20153;-46
2021/12/28 07:41:25;;;;;;;34.03;4.60;;;;;;;7.51;100.00;99160.41;5039072;28;20029;-45
2021/12/28 07:43:50;;;;;;;31.77;4.70;;;;;;;7.54;100.00;99165.38;5037365;28;20343;-45
2021/12/28 07:46:16;;;;;;;28.08;4.20;;;;;;;7.55;100.00;99161.69;5036975;28;20029;-47
2021/12/28 07:48:41;;;;;;;24.90;3.85;;;;;;;7.52;100.00;99156.75;5037243;28;20039;-48
2021/12/28 07:51:08;;;;;;;32.63;4.78;;;;;;;7.57;100.00;99157.84;5036622;28;20013;-46
2021/12/28 07:53:34;;;;;;;29.98;4.40;;;;;;;7.56;100.00;99156.19;5037067;28;20549;-45
2021/12/28 07:56:03;;;;;;;28.35;4.25;;;;;;;7.57;100.00;99157.84;5037041;28;20047;-44
2021/12/28 07:58:28;;;;;;;32.00;4.63;;;;;;;7.59;100.00;99152.38;5035860;28;20031;-46
2021/12/28 08:00:54;;;;;;;24.10;4.90;;;;;;;7.58;100.00;99151.50;5036180;28;20028;-45
2021/12/28 08:03:20;;;;;;;29.88;5.43;;;;;;;7.61;100.00;99147.69;5026834;28;20508;-45
2021/12/28 08:05:45;;;;;;;33.85;5.82;;;;;;;7.63;100.00;99148.31;5036035;28;20029;-47
2021/12/28 08:08:11;;;;;;;26.55;6.10;;;;;;;7.68;100.00;99142.47;5035428;28;20032;-45
2021/12/28 08:10:36;;;;;;;27.55;6.43;;;;;;;7.71;100.00;99140.25;5035400;28;20029;-44
2021/12/28 08:13:02;;;;;;;31.05;6.05;;;;;;;7.73;100.00;99146.19;5035260;28;20142;-47
2021/12/28 08:15:28;;;;;;;24.65;5.15;;;;;;;7.74;100.00;99145.22;5033779;28;20158;-44
2021/12/28 08:17:53;;;;;;;31.52;6.15;;;;;;;7.77;100.00;99150.16;5034104;28;20322;-43
2021/12/28 08:20:19;;;;;;;30.40;6.20;;;;;;;7.78;100.00;99143.00;5035868;28;20109;-45
2021/12/28 08:22:47;;;;;;;25.08;6.20;;;;;;;7.80;100.00;99146.28;5035579;28;20021;-46
2021/12/28 08:25:15;;;;;;;26.17;6.85;;;;;;;7.81;100.00;99139.97;5036283;28;20510;-43
2021/12/28 08:27:41;;;;;;;27.65;7.40;;;;;;;7.80;100.00;99141.78;5034095;28;20126;-44
2021/12/28 08:30:08;;;;;;;25.52;7.63;;;;;;;7.81;100.00;99140.78;5035315;28;20097;-43
2021/12/28 08:32:34;;;;;;;27.33;7.88;;;;;;;7.83;100.00;99133.44;5040555;28;20028;-45
2021/12/28 08:34:59;;;;;;;30.98;7.85;;;;;;;7.82;100.00;99123.00;5041519;28;20510;-47
2021/12/28 08:37:26;;;;;;;35.72;8.90;;;;;;;7.87;100.00;99127.78;5035095;28;20057;-46
2021/12/28 08:39:52;;;;;;;31.10;9.52;;;;;;;7.91;100.00;99129.03;5031998;28;20097;-43
2021/12/28 08:42:17;;;;;;;25.33;8.50;;;;;;;7.89;100.00;99118.63;5035424;28;20429;-48
2021/12/28 08:44:43;;;;;;;31.77;9.10;;;;;;;7.92;100.00;99123.53;5032401;28;20112;-48
2021/12/28 08:47:08;;;;;;;30.33;10.43;;;;;;;7.96;100.00;99129.28;5035194;28;20089;-44
2021/12/28 08:49:34;;;;;;;26.30;9.20;;;;;;;7.95;100.00;99125.81;5035054;28;20036;-47
2021/12/28 08:51:59;;;;;;;32.78;11.40;;;;;;;7.97;100.00;99115.00;5035602;28;20029;-45
2021/12/28 08:54:25;;;;;;;30.55;11.40;;;;;;;7.98;100.00;99124.66;5035997;28;20028;-45
2021/12/28 08:56:51;;;;;;;33.75;12.27;;;;;;;8.02;100.00;99126.72;5035121;28;20053;-44
2021/12/28 08:59:18;;;;;;;32.55;12.32;;;;;;;8.07;100.00;99133.31;5033734;28;20165;-47
2021/12/28 09:01:43;;;;;;;30.80;11.57;;;;;;;8.09;100.00;99131.31;5027608;28;20141;-47
2021/12/28 09:04:09;;;;;;;37.95;13.50;;;;;;;8.09;100.00;99118.81;5035355;28;20032;-50
2021/12/28 09:06:34;;;;;;;43.42;14.65;;;;;;;8.12;100.00;99126.44;5026296;28;20025;-45
2021/12/28 09:08:59;;;;;;;34.90;13.05;;;;;;;8.12;100.00;99118.44;5024207;28;20053;-45
2021/12/28 09:11:25;;;;;;;39.45;14.50;;;;;;;8.14;100.00;99115.59;5030493;28;20466;-48
2021/12/28 09:13:51;;;;;;;47.15;16.15;;;;;;;8.14;100.00;99112.94;5037482;28;20028;-48
2021/12/28 09:16:16;;;;;;;45.75;16.52;;;;;;;8.17;100.00;99116.06;5044654;28;20531;-44
2021/12/28 09:18:42;;;;;;;40.03;15.85;;;;;;;8.20;100.00;99109.56;5043096;28;20029;-43
2021/12/28 09:21:07;;;;;;;45.80;17.98;;;;;;;8.21;100.00;99119.16;5045692;28;20104;-45
2021/12/28 09:23:33;;;;;;;46.85;18.88;;;;;;;8.25;100.00;99119.59;5047429;28;20012;-48
2021/12/28 09:25:58;;;;;;;47.20;18.20;;;;;;;8.27;100.00;99115.75;5056061;28;20063;-45
2021/12/28 09:28:24;;;;;;;43.00;17.77;;;;;;;8.30;100.00;99101.25;5055997;28;20058;-43
2021/12/28 09:30:49;;;;;;;40.08;16.95;;;;;;;8.32;100.00;99104.56;5036144;28;20032;-46
2021/12/28 09:33:15;;;;;;;43.30;19.75;;;;;;;8.36;100.00;99100.50;5054862;28;20032;-45
2021/12/28 09:35:40;;;;;;;44.10;19.40;;;;;;;8.36;100.00;99092.50;5034499;28;20024;-48
2021/12/28 09:38:06;;;;;;;43.58;18.77;;;;;;;8.45;100.00;99096.72;5034981;28;20456;-47
2021/12/28 09:40:34;;;;;;;42.50;19.30;;;;;;;8.47;100.00;99099.19;5035676;28;20032;-46
2021/12/28 09:43:00;;;;;;;41.63;20.90;;;;;;;8.52;100.00;99091.44;5035632;28;20020;-46
2021/12/28 09:45:27;;;;;;;40.65;19.90;;;;;;;8.50;100.00;99083.69;5035600;28;20025;-49
2021/12/28 09:47:53;;;;;;;41.03;17.92;;;;;;;8.53;100.00;99080.63;5036098;28;20021;-45
2021/12/28 09:50:18;;;;;;;43.90;19.48;;;;;;;8.52;100.00;99086.97;5034175;28;20033;-46
2021/12/28 09:52:46;;;;;;;36.78;19.13;;;;;;;8.52;100.00;99086.97;5034564;28;20436;-45
2021/12/28 09:55:13;;;;;;;42.45;17.67;;;;;;;8.51;100.00;99080.00;5043961;28;20110;-45
2021/12/28 09:57:40;;;;;;;34.75;15.95;;;;;;;8.46;100.00;99070.94;5035835;28;20738;-48
2021/12/28 10:00:07;;;;;;;34.13;16.77;;;;;;;8.47;100.00;99068.09;5035492;28;20024;-46
2021/12/28 10:02:33;;;;;;;36.63;17.80;;;;;;;8.48;100.00;99075.06;5035668;28;20102;-47
2021/12/28 10:05:04;;;;;;;34.30;17.13;;;;;;;8.52;100.00;99060.38;5035658;28;20457;-47
2021/12/28 10:07:31;;;;;;;;;;;;;;;8.57;100.00;99062.44;5034137;28;20433;-49
2021/12/28 10:09:57;;;;;;;34.38;16.58;;;;;;;8.64;100.00;99057.16;5040041;28;19917;-48
2021/12/28 10:12:34;;;;;;;35.90;17.95;;;;;;;8.68;100.00;99047.81;5040183;28;20025;-50
2021/12/28 10:15:04;;;;;;;27.67;15.40;;;;;;;8.69;100.00;99052.94;5038593;28;20040;-44
2021/12/28 10:17:32;;;;;;;31.20;16.88;;;;;;;8.73;100.00;99048.84;5039191;28;20020;-45
2021/12/28 10:19:59;;;;;;;27.67;12.55;;;;;;;8.76;100.00;99051.13;5038836;28;20009;-46
2021/12/28 10:22:28;;;;;;;25.40;13.15;;;;;;;8.76;100.00;99037.81;5038725;28;20035;-49
2021/12/28 10:25:21;;;;;;;25.50;13.43;;;;;;;8.80;100.00;99029.47;5039188;28;20025;-47
2021/12/28 10:27:49;;;;;;;30.13;12.07;;;;;;;8.81;100.00;99029.25;5033696;28;20064;-50
2021/12/28 10:30:23;;;;;;;22.88;12.40;;;;;;;8.84;100.00;99026.22;5037074;28;20016;-48
2021/12/28 10:32:54;;;;;;;18.95;11.32;;;;;;;8.86;100.00;99016.19;5034987;28;20311;-49
2021/12/28 10:35:24;;;;;;;19.73;11.43;;;;;;;8.91;100.00;99012.94;5040040;28;20029;-45
2021/12/28 10:37:53;;;;;;;19.40;9.73;;;;;;;8.93;100.00;99005.59;5035167;28;20135;-45
2021/12/28 10:40:27;;;;;;;19.38;9.57;;;;;;;9.00;100.00;98997.66;5046757;28;20354;-45
2021/12/28 10:42:58;;;;;;;16.58;8.50;;;;;;;9.04;100.00;98999.69;5036718;28;20052;-48
2021/12/28 10:45:31;;;;;;;14.93;8.80;;;;;;;9.08;100.00;98992.13;5038440;28;20047;-48
2021/12/28 10:48:05;;;;;;;13.13;8.07;;;;;;;9.11;100.00;98995.25;5035173;28;20660;-46
2021/12/28 10:50:43;;;;;;;14.05;7.68;;;;;;;9.12;100.00;99001.38;5042991;28;20366;-45
2021/12/28 10:53:18;;;;;;;13.23;7.75;;;;;;;9.10;100.00;98993.59;5037454;28;20032;-48
2021/12/28 10:55:46;;;;;;;15.88;7.13;;;;;;;9.13;100.00;98995.03;5037645;28;20037;-46
2021/12/28 10:58:41;;;;;;;12.90;6.55;;;;;;;9.17;100.00;98993.63;5037334;28;20028;-46
2021/12/28 11:01:13;;;;;;;13.85;6.57;;;;;;;9.21;100.00;98989.53;5037396;28;20134;-49
2021/12/28 11:03:41;;;;;;;14.15;6.18;;;;;;;9.19;100.00;98994.25;5037385;28;20472;-48
2021/12/28 11:06:10;;;;;;;13.57;6.25;;;;;;;9.12;100.00;98988.88;5037880;28;20021;-47
2021/12/28 11:08:36;;;;;;;14.13;5.70;;;;;;;9.07;100.00;98974.53;5037516;28;20040;-51
2021/12/28 11:11:13;;;;;;;16.00;6.15;;;;;;;9.02;100.00;98976.97;5037686;28;20369;-47
2021/12/28 11:13:38;;;;;;;11.98;5.95;;;;;;;8.99;100.00;98972.84;5036529;28;20427;-49
2021/12/28 11:16:07;;;;;;;15.25;6.45;;;;;;;8.94;100.00;98962.81;5037623;28;20025;-49
2021/12/28 11:18:38;;;;;;;17.33;6.10;;;;;;;8.92;100.00;98956.00;5037226;28;20029;-49